createdAt,value
2022-10-17T00:04:35.584Z,11.50
2022-10-17T00:12:40.968Z,12.43
2022-10-17T00:20:48.859Z,11.82
2022-10-17T00:28:55.650Z,12.25
2022-10-17T00:37:03.572Z,12.77
2022-10-17T00:45:23.312Z,13.82
2022-10-17T00:53:31.772Z,13.13
2022-10-17T01:01:37.564Z,12.43
2022-10-17T01:09:47.998Z,11.63
2022-10-17T01:18:02.195Z,11.27
2022-10-17T01:26:22.128Z,11.05
2022-10-17T01:34:36.191Z,11.30
2022-10-17T01:42:48.436Z,11.10
2022-10-17T01:51:01.527Z,10.60
2022-10-17T01:59:12.417Z,10.80
2022-10-17T02:07:20.368Z,10.77
2022-10-17T02:15:53.997Z,10.40
2022-10-17T02:24:10.707Z,9.85
2022-10-17T02:40:34.663Z,9.02
2022-10-17T02:48:45.256Z,9.93
2022-10-17T02:56:57.836Z,10.10
2022-10-17T03:05:03.228Z,9.38
2022-10-17T03:13:11.266Z,9.88
2022-10-17T03:21:19.491Z,9.32
2022-10-17T03:29:27.888Z,9.55
2022-10-17T03:37:33.399Z,10.27
2022-10-17T03:45:41.398Z,9.90
2022-10-17T03:53:47.059Z,9.70
2022-10-17T04:01:55.140Z,8.85
2022-10-17T04:10:01.111Z,8.85
2022-10-17T04:18:09.183Z,8.63
2022-10-17T04:26:14.588Z,7.60
2022-10-17T04:34:22.664Z,8.95
2022-10-17T04:42:28.534Z,8.05
2022-10-17T04:50:37.768Z,8.55
2022-10-17T04:59:06.445Z,9.15
2022-10-17T05:07:15.478Z,10.55
2022-10-17T05:15:26.376Z,11.68
2022-10-17T05:23:36.075Z,11.88
2022-10-17T05:31:41.521Z,10.88
2022-10-17T05:39:51.503Z,12.25
2022-10-17T05:47:57.899Z,12.27
2022-10-17T05:56:08.221Z,11.35
2022-10-17T06:04:14.884Z,10.20
2022-10-17T06:12:23.474Z,9.85
2022-10-17T06:20:29.179Z,9.60
2022-10-17T06:28:37.714Z,11.65
2022-10-17T06:36:43.413Z,8.98
2022-10-17T06:44:52.275Z,9.70
2022-10-17T06:53:00.496Z,9.32
2022-10-17T07:01:30.065Z,8.20
2022-10-17T07:09:38.216Z,7.47
2022-10-17T07:17:46.219Z,7.97
2022-10-17T07:25:51.573Z,8.30
2022-10-17T07:33:59.663Z,8.00
2022-10-17T07:42:07.567Z,7.63
2022-10-17T07:50:16.215Z,7.75
2022-10-17T07:58:21.620Z,7.78
2022-10-17T08:06:29.649Z,8.60
2022-10-17T08:14:35.239Z,10.32
2022-10-17T08:22:43.328Z,7.70
2022-10-17T08:30:48.623Z,7.93
2022-10-17T08:38:57.720Z,7.38
2022-10-17T08:47:06.887Z,8.30
2022-10-17T09:03:55.163Z,6.65
2022-10-17T09:12:13.863Z,7.13
2022-10-17T09:20:22.737Z,6.90
2022-10-17T09:28:34.803Z,5.35
2022-10-17T09:36:42.669Z,5.72
2022-10-17T09:44:55.962Z,4.90
2022-10-17T09:53:08.592Z,5.70
2022-10-17T10:01:25.084Z,5.45
2022-10-17T10:09:34.866Z,5.60
2022-10-17T10:17:45.559Z,5.07
2022-10-17T10:25:59.134Z,4.57
2022-10-17T10:34:22.197Z,5.00
2022-10-17T10:42:30.503Z,7.50
2022-10-17T10:50:45.321Z,5.65
2022-10-17T10:58:58.471Z,5.22
2022-10-17T11:07:13.117Z,5.60
2022-10-17T11:15:25.467Z,4.60
2022-10-17T11:23:43.428Z,5.40
2022-10-17T11:31:53.704Z,4.78
2022-10-17T11:40:05.457Z,5.05
2022-10-17T11:48:20.497Z,4.95
2022-10-17T11:56:37.037Z,7.18
2022-10-17T12:04:55.342Z,4.80
2022-10-17T12:13:41.932Z,4.47
2022-10-17T12:22:03.156Z,4.80
2022-10-17T12:30:30.373Z,4.88
2022-10-17T12:38:35.654Z,4.22
2022-10-17T12:46:52.088Z,4.47
2022-10-17T12:55:15.095Z,4.30
2022-10-17T13:03:28.888Z,4.05
2022-10-17T13:11:36.983Z,5.18
2022-10-17T13:19:48.607Z,5.07
2022-10-17T13:27:54.702Z,4.32
2022-10-17T13:36:03.643Z,4.18
2022-10-17T13:44:16.407Z,4.22
2022-10-17T13:52:29.619Z,4.97
2022-10-17T14:00:35.418Z,4.65
2022-10-17T14:08:55.343Z,5.20
2022-10-17T14:17:00.845Z,5.30
2022-10-17T14:25:09.382Z,5.22
2022-10-17T14:33:18.962Z,5.10
2022-10-17T14:41:42.395Z,5.30
2022-10-17T14:49:52.862Z,5.07
2022-10-17T14:58:01.296Z,4.95
2022-10-17T15:06:18.295Z,5.38
2022-10-17T15:14:26.209Z,5.68
2022-10-17T15:22:31.824Z,5.80
2022-10-17T15:30:40.794Z,6.40
2022-10-17T15:38:46.154Z,7.47
2022-10-17T15:46:54.143Z,8.93
2022-10-17T15:55:04.109Z,8.20
2022-10-17T16:03:14.348Z,8.95
2022-10-17T16:11:22.531Z,8.20
2022-10-17T16:19:32.039Z,8.05
2022-10-17T16:27:37.895Z,12.05
2022-10-17T16:35:47.742Z,13.13
2022-10-17T16:43:54.226Z,16.00
2022-10-17T16:52:02.134Z,18.58
2022-10-17T17:00:09.222Z,19.92
2022-10-17T17:08:17.165Z,20.55
2022-10-17T17:16:25.490Z,20.05
2022-10-17T17:24:33.430Z,20.30
2022-10-17T17:32:38.804Z,20.50
2022-10-17T17:40:51.055Z,22.38
2022-10-17T17:48:57.591Z,22.67
2022-10-17T17:57:05.514Z,22.95
2022-10-17T18:05:11.303Z,22.05
2022-10-17T18:13:19.876Z,23.33
2022-10-17T18:21:25.763Z,24.20
2022-10-17T18:29:42.050Z,24.40
2022-10-17T18:37:47.330Z,23.40
2022-10-17T18:45:58.831Z,22.60
2022-10-17T18:54:04.045Z,20.15
2022-10-17T19:02:14.383Z,20.80
2022-10-17T19:10:19.764Z,21.05
2022-10-17T19:18:27.669Z,20.42
2022-10-17T19:26:35.181Z,20.38
2022-10-17T19:34:43.064Z,21.95
2022-10-17T19:42:48.372Z,17.65
2022-10-17T19:51:00.170Z,16.63
2022-10-17T19:59:06.496Z,15.27
2022-10-17T20:07:18.860Z,14.98
2022-10-17T20:15:25.175Z,13.45
2022-10-17T20:23:33.091Z,16.58
2022-10-17T20:31:38.421Z,13.43
2022-10-17T20:39:46.449Z,12.77
2022-10-17T20:47:54.425Z,15.02
2022-10-17T20:56:11.683Z,15.02
2022-10-17T21:12:53.836Z,16.08
2022-10-17T21:21:08.822Z,18.75
2022-10-17T21:29:17.321Z,19.52
2022-10-17T21:37:22.624Z,16.35
2022-10-17T21:45:30.696Z,14.02
2022-10-17T21:53:36.976Z,12.30
2022-10-17T22:01:47.998Z,11.95
2022-10-17T22:09:53.311Z,12.20
2022-10-17T22:18:01.273Z,12.10
2022-10-17T22:26:06.837Z,12.35
2022-10-17T22:34:16.459Z,13.50
2022-10-17T22:50:51.008Z,11.82
2022-10-17T22:58:56.354Z,12.32
2022-10-17T23:07:07.476Z,11.93
2022-10-17T23:15:13.670Z,11.93
2022-10-17T23:23:22.236Z,12.65
2022-10-17T23:31:27.552Z,12.93
2022-10-17T23:39:35.467Z,12.93
2022-10-17T23:47:41.119Z,11.25
2022-10-17T23:55:49.067Z,11.75
